sensor_id;sensor_type;location;lat;lon;timestamp;pressure;altitude;pressure_sealevel;temperature;humidity
21638;BME280;10980;49.596;6.142;2023-02-21T00:01:49;98953.41;;;2.17;100.00
21638;BME280;10980;49.596;6.142;2023-02-21T00:05:35;98957.13;;;2.13;100.00
21638;BME280;10980;49.596;6.142;2023-02-21T00:09:16;98944.44;;;3.25;100.00
21638;BME280;10980;49.596;6.142;2023-02-21T00:12:59;98947.31;;;3.69;100.00
21638;BME280;10980;49.596;6.142;2023-02-21T00:16:40;98939.59;;;3.82;100.00
21638;BME280;10980;49.596;6.142;2023-02-21T00:20:20;98933.41;;;3.83;100.00
21638;BME280;10980;49.596;6.142;2023-02-21T00:24:00;98930.34;;;3.43;100.00
21638;BME280;10980;49.596;6.142;2023-02-21T00:27:41;98921.94;;;3.52;100.00
21638;BME280;10980;49.596;6.142;2023-02-21T00:31:27;98929.03;;;3.35;100.00
21638;BME280;10980;49.596;6.142;2023-02-21T00:35:14;98914.31;;;3.64;100.00
21638;BME280;10980;49.596;6.142;2023-02-21T00:39:03;98917.50;;;3.37;100.00
21638;BME280;10980;49.596;6.142;2023-02-21T00:42:46;98913.88;;;3.55;100.00
21638;BME280;10980;49.596;6.142;2023-02-21T00:46:36;98905.06;;;3.56;100.00
21638;BME280;10980;49.596;6.142;2023-02-21T00:50:21;98891.31;;;3.51;100.00
21638;BME280;10980;49.596;6.142;2023-02-21T00:54:03;98896.66;;;3.50;100.00
21638;BME280;10980;49.596;6.142;2023-02-21T00:57:43;98902.78;;;3.50;100.00
21638;BME280;10980;49.596;6.142;2023-02-21T01:01:25;98909.91;;;3.48;100.00
21638;BME280;10980;49.596;6.142;2023-02-21T01:05:11;98901.16;;;3.48;100.00
21638;BME280;10980;49.596;6.142;2023-02-21T01:08:51;98900.03;;;3.36;100.00
21638;BME280;10980;49.596;6.142;2023-02-21T01:12:36;98891.41;;;3.34;100.00
21638;BME280;10980;49.596;6.142;2023-02-21T01:16:21;98884.44;;;3.33;100.00
21638;BME280;10980;49.596;6.142;2023-02-21T01:20:21;98893.25;;;3.32;100.00
21638;BME280;10980;49.596;6.142;2023-02-21T01:24:11;98880.44;;;3.26;100.00
21638;BME280;10980;49.596;6.142;2023-02-21T01:27:58;98879.69;;;3.40;100.00
21638;BME280;10980;49.596;6.142;2023-02-21T01:31:43;98883.06;;;3.26;100.00
21638;BME280;10980;49.596;6.142;2023-02-21T01:35:39;98870.53;;;3.31;100.00
21638;BME280;10980;49.596;6.142;2023-02-21T01:39:19;98872.00;;;3.52;100.00
21638;BME280;10980;49.596;6.142;2023-02-21T01:43:29;98871.66;;;3.43;100.00
21638;BME280;10980;49.596;6.142;2023-02-21T01:47:18;98864.19;;;3.35;100.00
21638;BME280;10980;49.596;6.142;2023-02-21T01:51:27;98866.81;;;3.35;100.00
21638;BME280;10980;49.596;6.142;2023-02-21T01:55:15;98866.81;;;3.35;100.00
21638;BME280;10980;49.596;6.142;2023-02-21T01:59:04;98858.66;;;3.40;100.00
21638;BME280;10980;49.596;6.142;2023-02-21T02:03:09;98851.03;;;3.35;100.00
21638;BME280;10980;49.596;6.142;2023-02-21T02:06:50;98854.44;;;3.37;100.00
21638;BME280;10980;49.596;6.142;2023-02-21T02:10:31;98842.06;;;3.39;100.00
21638;BME280;10980;49.596;6.142;2023-02-21T02:15:29;98835.78;;;3.26;100.00
21638;BME280;10980;49.596;6.142;2023-02-21T02:18:57;98845.59;;;3.22;100.00
21638;BME280;10980;49.596;6.142;2023-02-21T02:26:27;98825.25;;;3.10;100.00
21638;BME280;10980;49.596;6.142;2023-02-21T02:43:02;98812.84;;;2.96;100.00
21638;BME280;10980;49.596;6.142;2023-02-21T02:46:33;98815.56;;;2.95;100.00
21638;BME280;10980;49.596;6.142;2023-02-21T02:49:59;98819.28;;;2.91;100.00
21638;BME280;10980;49.596;6.142;2023-02-21T02:53:28;98817.50;;;2.91;100.00
21638;BME280;10980;49.596;6.142;2023-02-21T02:56:52;98821.66;;;2.95;100.00
21638;BME280;10980;49.596;6.142;2023-02-21T03:00:17;98816.09;;;3.02;100.00
21638;BME280;10980;49.596;6.142;2023-02-21T03:04:09;98820.69;;;3.14;100.00
21638;BME280;10980;49.596;6.142;2023-02-21T03:08:09;98821.28;;;3.19;100.00
21638;BME280;10980;49.596;6.142;2023-02-21T03:12:00;98829.16;;;3.19;100.00
21638;BME280;10980;49.596;6.142;2023-02-21T03:16:01;98824.50;;;3.24;100.00
21638;BME280;10980;49.596;6.142;2023-02-21T03:19:36;98821.34;;;3.02;100.00
21638;BME280;10980;49.596;6.142;2023-02-21T03:23:03;98831.22;;;3.14;100.00
21638;BME280;10980;49.596;6.142;2023-02-21T03:26:34;98837.03;;;3.19;100.00
21638;BME280;10980;49.596;6.142;2023-02-21T03:30:18;98828.72;;;3.11;100.00
21638;BME280;10980;49.596;6.142;2023-02-21T03:33:44;98846.97;;;3.14;100.00
21638;BME280;10980;49.596;6.142;2023-02-21T03:37:18;98839.06;;;2.98;100.00
21638;BME280;10980;49.596;6.142;2023-02-21T03:40:43;98837.78;;;3.05;100.00
21638;BME280;10980;49.596;6.142;2023-02-21T03:44:05;98843.03;;;3.05;100.00
21638;BME280;10980;49.596;6.142;2023-02-21T03:47:27;98839.66;;;3.03;100.00
21638;BME280;10980;49.596;6.142;2023-02-21T03:50:59;98839.75;;;3.02;100.00
21638;BME280;10980;49.596;6.142;2023-02-21T03:54:26;98829.09;;;2.72;100.00
21638;BME280;10980;49.596;6.142;2023-02-21T03:57:51;98829.44;;;2.81;100.00
21638;BME280;10980;49.596;6.142;2023-02-21T04:01:14;98830.97;;;2.85;100.00
21638;BME280;10980;49.596;6.142;2023-02-21T04:04:41;98825.41;;;2.91;100.00
21638;BME280;10980;49.596;6.142;2023-02-21T04:08:17;98834.47;;;2.86;100.00
21638;BME280;10980;49.596;6.142;2023-02-21T04:11:44;98825.34;;;2.76;100.00
21638;BME280;10980;49.596;6.142;2023-02-21T04:15:07;98824.69;;;2.72;100.00
21638;BME280;10980;49.596;6.142;2023-02-21T04:18:29;98831.78;;;2.70;100.00
21638;BME280;10980;49.596;6.142;2023-02-21T04:22:02;98823.28;;;2.65;100.00
21638;BME280;10980;49.596;6.142;2023-02-21T04:25:43;98823.28;;;2.65;100.00
21638;BME280;10980;49.596;6.142;2023-02-21T04:29:11;98825.31;;;2.60;100.00
21638;BME280;10980;49.596;6.142;2023-02-21T04:32:34;98829.13;;;2.37;100.00
21638;BME280;10980;49.596;6.142;2023-02-21T04:36:01;98830.91;;;2.19;100.00
21638;BME280;10980;49.596;6.142;2023-02-21T04:39:36;98830.53;;;2.09;100.00
21638;BME280;10980;49.596;6.142;2023-02-21T04:42:59;98831.66;;;2.04;100.00
21638;BME280;10980;49.596;6.142;2023-02-21T04:46:23;98823.81;;;2.04;100.00
21638;BME280;10980;49.596;6.142;2023-02-21T04:49:45;98832.22;;;2.28;100.00
21638;BME280;10980;49.596;6.142;2023-02-21T04:53:12;98821.81;;;2.26;100.00
21638;BME280;10980;49.596;6.142;2023-02-21T04:56:34;98821.72;;;2.28;100.00
21638;BME280;10980;49.596;6.142;2023-02-21T04:59:58;98828.28;;;2.19;100.00
21638;BME280;10980;49.596;6.142;2023-02-21T05:03:20;98815.06;;;2.38;100.00
21638;BME280;10980;49.596;6.142;2023-02-21T05:06:42;98820.06;;;2.60;100.00
21638;BME280;10980;49.596;6.142;2023-02-21T05:10:04;98819.91;;;2.63;100.00
21638;BME280;10980;49.596;6.142;2023-02-21T05:13:27;98825.16;;;2.63;100.00
21638;BME280;10980;49.596;6.142;2023-02-21T05:16:49;98812.72;;;2.66;100.00
21638;BME280;10980;49.596;6.142;2023-02-21T05:20:15;98816.50;;;2.61;100.00
21638;BME280;10980;49.596;6.142;2023-02-21T05:23:47;98815.28;;;2.68;100.00
21638;BME280;10980;49.596;6.142;2023-02-21T05:27:19;98824.59;;;2.74;100.00
21638;BME280;10980;49.596;6.142;2023-02-21T05:30:48;98816.97;;;2.69;100.00
21638;BME280;10980;49.596;6.142;2023-02-21T05:34:12;98822.34;;;2.66;100.00
21638;BME280;10980;49.596;6.142;2023-02-21T05:37:35;98814.41;;;2.67;100.00
21638;BME280;10980;49.596;6.142;2023-02-21T05:40:57;98809.22;;;2.66;100.00
21638;BME280;10980;49.596;6.142;2023-02-21T05:44:20;98811.28;;;2.44;100.00
21638;BME280;10980;49.596;6.142;2023-02-21T05:47:41;98815.94;;;2.38;100.00
21638;BME280;10980;49.596;6.142;2023-02-21T05:51:04;98804.66;;;2.36;100.00
21638;BME280;10980;49.596;6.142;2023-02-21T05:54:31;98812.06;;;2.46;100.00
21638;BME280;10980;49.596;6.142;2023-02-21T05:57:54;98822.09;;;2.55;100.00
21638;BME280;10980;49.596;6.142;2023-02-21T06:01:16;98822.78;;;2.58;100.00
21638;BME280;10980;49.596;6.142;2023-02-21T06:04:39;98815.59;;;2.62;100.00
21638;BME280;10980;49.596;6.142;2023-02-21T06:08:02;98824.31;;;2.62;100.00
21638;BME280;10980;49.596;6.142;2023-02-21T06:11:31;98819.72;;;2.66;100.00
21638;BME280;10980;49.596;6.142;2023-02-21T06:14:59;98818.75;;;2.68;100.00
21638;BME280;10980;49.596;6.142;2023-02-21T06:18:22;98815.81;;;2.90;100.00
21638;BME280;10980;49.596;6.142;2023-02-21T06:21:45;98815.75;;;3.08;100.00
21638;BME280;10980;49.596;6.142;2023-02-21T06:25:10;98813.41;;;3.19;100.00
21638;BME280;10980;49.596;6.142;2023-02-21T06:28:35;98809.84;;;3.20;100.00
21638;BME280;10980;49.596;6.142;2023-02-21T06:32:04;98813.06;;;3.25;100.00
21638;BME280;10980;49.596;6.142;2023-02-21T06:35:32;98812.47;;;3.20;100.00
21638;BME280;10980;49.596;6.142;2023-02-21T06:38:56;98821.69;;;3.27;100.00
21638;BME280;10980;49.596;6.142;2023-02-21T06:42:18;98806.47;;;3.18;100.00
21638;BME280;10980;49.596;6.142;2023-02-21T06:45:40;98803.25;;;3.13;100.00
21638;BME280;10980;49.596;6.142;2023-02-21T06:49:06;98805.06;;;3.11;100.00
21638;BME280;10980;49.596;6.142;2023-02-21T06:52:32;98806.94;;;3.09;100.00
21638;BME280;10980;49.596;6.142;2023-02-21T06:55:57;98815.59;;;3.11;100.00
21638;BME280;10980;49.596;6.142;2023-02-21T06:59:20;98798.38;;;3.05;100.00
21638;BME280;10980;49.596;6.142;2023-02-21T07:02:43;98813.56;;;3.16;100.00
21638;BME280;10980;49.596;6.142;2023-02-21T07:06:05;98815.66;;;3.09;100.00
21638;BME280;10980;49.596;6.142;2023-02-21T07:09:36;98819.25;;;3.24;100.00
21638;BME280;10980;49.596;6.142;2023-02-21T07:12:58;98815.28;;;3.33;100.00
21638;BME280;10980;49.596;6.142;2023-02-21T07:16:20;98817.16;;;3.46;100.00
21638;BME280;10980;49.596;6.142;2023-02-21T07:19:43;98822.56;;;3.43;100.00
21638;BME280;10980;49.596;6.142;2023-02-21T07:23:05;98819.56;;;3.81;100.00
21638;BME280;10980;49.596;6.142;2023-02-21T07:26:27;98816.97;;;3.95;100.00
21638;BME280;10980;49.596;6.142;2023-02-21T07:29:50;98814.59;;;4.06;100.00
21638;BME280;10980;49.596;6.142;2023-02-21T07:33:12;98806.31;;;4.12;100.00
21638;BME280;10980;49.596;6.142;2023-02-21T07:36:36;98807.81;;;4.16;100.00
21638;BME280;10980;49.596;6.142;2023-02-21T07:40:01;98811.91;;;4.22;100.00
21638;BME280;10980;49.596;6.142;2023-02-21T07:43:31;98804.88;;;4.37;100.00
21638;BME280;10980;49.596;6.142;2023-02-21T07:46:55;98805.69;;;4.82;100.00
21638;BME280;10980;49.596;6.142;2023-02-21T07:50:17;98811.25;;;4.77;100.00
21638;BME280;10980;49.596;6.142;2023-02-21T07:53:39;98806.34;;;4.99;100.00
21638;BME280;10980;49.596;6.142;2023-02-21T07:57:03;98797.28;;;5.18;100.00
21638;BME280;10980;49.596;6.142;2023-02-21T08:00:27;98799.97;;;5.72;100.00
21638;BME280;10980;49.596;6.142;2023-02-21T08:03:49;98798.44;;;6.21;100.00
21638;BME280;10980;49.596;6.142;2023-02-21T08:07:11;98793.91;;;6.23;100.00
21638;BME280;10980;49.596;6.142;2023-02-21T08:10:36;98791.41;;;6.73;100.00
21638;BME280;10980;49.596;6.142;2023-02-21T08:14:12;98794.97;;;7.10;100.00
21638;BME280;10980;49.596;6.142;2023-02-21T08:17:33;98793.63;;;7.41;100.00
21638;BME280;10980;49.596;6.142;2023-02-21T08:20:55;98799.22;;;7.73;100.00
21638;BME280;10980;49.596;6.142;2023-02-21T08:24:19;98793.91;;;8.21;100.00
21638;BME280;10980;49.596;6.142;2023-02-21T08:27:41;98782.44;;;8.55;100.00
21638;BME280;10980;49.596;6.142;2023-02-21T08:31:04;98787.44;;;8.93;100.00
21638;BME280;10980;49.596;6.142;2023-02-21T08:34:28;98783.81;;;9.28;100.00
21638;BME280;10980;49.596;6.142;2023-02-21T08:37:51;98796.63;;;9.66;100.00
21638;BME280;10980;49.596;6.142;2023-02-21T08:41:19;98776.22;;;9.78;100.00
21638;BME280;10980;49.596;6.142;2023-02-21T08:44:45;98785.13;;;9.88;100.00
21638;BME280;10980;49.596;6.142;2023-02-21T08:48:10;98766.97;;;9.93;100.00
21638;BME280;10980;49.596;6.142;2023-02-21T08:51:33;98773.53;;;10.10;100.00
21638;BME280;10980;49.596;6.142;2023-02-21T08:54:56;98764.69;;;10.21;100.00
21638;BME280;10980;49.596;6.142;2023-02-21T08:58:17;98760.97;;;10.44;100.00
21638;BME280;10980;49.596;6.142;2023-02-21T09:01:39;98761.50;;;10.68;100.00
21638;BME280;10980;49.596;6.142;2023-02-21T09:05:01;98763.25;;;11.10;100.00
21638;BME280;10980;49.596;6.142;2023-02-21T09:08:23;98755.38;;;11.39;100.00
21638;BME280;10980;49.596;6.142;2023-02-21T09:11:47;98745.59;;;11.58;100.00
21638;BME280;10980;49.596;6.142;2023-02-21T09:15:18;98742.44;;;12.13;100.00
21638;BME280;10980;49.596;6.142;2023-02-21T09:18:41;98742.97;;;12.16;100.00
21638;BME280;10980;49.596;6.142;2023-02-21T09:22:07;98730.34;;;12.38;100.00
21638;BME280;10980;49.596;6.142;2023-02-21T09:25:30;98734.63;;;12.68;100.00
21638;BME280;10980;49.596;6.142;2023-02-21T09:28:52;98729.03;;;12.98;100.00
21638;BME280;10980;49.596;6.142;2023-02-21T09:32:17;98730.38;;;13.12;100.00
21638;BME280;10980;49.596;6.142;2023-02-21T09:35:51;98719.38;;;13.25;100.00
21638;BME280;10980;49.596;6.142;2023-02-21T09:39:14;98714.44;;;13.48;100.00
21638;BME280;10980;49.596;6.142;2023-02-21T09:42:37;98720.25;;;13.43;100.00
21638;BME280;10980;49.596;6.142;2023-02-21T09:46:05;98712.56;;;13.76;100.00
21638;BME280;10980;49.596;6.142;2023-02-21T09:49:42;98705.47;;;13.84;100.00
21638;BME280;10980;49.596;6.142;2023-02-21T09:53:07;98700.56;;;14.15;100.00
21638;BME280;10980;49.596;6.142;2023-02-21T09:56:38;98698.97;;;14.05;100.00
21638;BME280;10980;49.596;6.142;2023-02-21T10:00:34;98695.31;;;12.60;100.00
21638;BME280;10980;49.596;6.142;2023-02-21T10:04:26;98689.88;;;13.62;100.00
21638;BME280;10980;49.596;6.142;2023-02-21T10:08:09;98690.34;;;14.37;100.00
21638;BME280;10980;49.596;6.142;2023-02-21T10:15:44;98687.38;;;13.05;100.00
21638;BME280;10980;49.596;6.142;2023-02-21T10:22:39;98692.13;;;13.39;100.00
21638;BME280;10980;49.596;6.142;2023-02-21T10:26:09;98687.22;;;14.67;100.00
21638;BME280;10980;49.596;6.142;2023-02-21T10:30:06;98689.09;;;15.09;100.00
21638;BME280;10980;49.596;6.142;2023-02-21T10:33:36;98686.34;;;15.35;100.00
21638;BME280;10980;49.596;6.142;2023-02-21T10:37:39;98687.81;;;15.21;100.00
21638;BME280;10980;49.596;6.142;2023-02-21T10:41:04;98686.50;;;15.41;100.00
21638;BME280;10980;49.596;6.142;2023-02-21T10:44:31;98685.81;;;15.23;100.00
21638;BME280;10980;49.596;6.142;2023-02-21T10:48:05;98686.41;;;15.09;100.00
21638;BME280;10980;49.596;6.142;2023-02-21T10:51:33;98685.19;;;14.95;100.00
21638;BME280;10980;49.596;6.142;2023-02-21T10:55:14;98686.03;;;14.96;100.00
21638;BME280;10980;49.596;6.142;2023-02-21T10:59:05;98680.59;;;14.79;100.00
21638;BME280;10980;49.596;6.142;2023-02-21T11:02:38;98684.41;;;15.03;100.00
21638;BME280;10980;49.596;6.142;2023-02-21T11:06:01;98680.41;;;15.15;100.00
21638;BME280;10980;49.596;6.142;2023-02-21T11:16:36;98659.06;;;14.89;100.00
21638;BME280;10980;49.596;6.142;2023-02-21T11:20:17;98658.81;;;14.74;100.00
21638;BME280;10980;49.596;6.142;2023-02-21T11:23:55;98641.84;;;14.91;100.00
21638;BME280;10980;49.596;6.142;2023-02-21T11:27:19;98641.84;;;14.91;100.00
21638;BME280;10980;49.596;6.142;2023-02-21T11:34:31;98631.97;;;14.92;100.00
21638;BME280;10980;49.596;6.142;2023-02-21T11:38:02;98635.81;;;14.89;100.00
21638;BME280;10980;49.596;6.142;2023-02-21T11:41:46;98629.59;;;14.89;100.00
21638;BME280;10980;49.596;6.142;2023-02-21T11:45:18;98619.41;;;14.93;100.00
21638;BME280;10980;49.596;6.142;2023-02-21T11:57:00;98604.44;;;15.24;100.00
21638;BME280;10980;49.596;6.142;2023-02-21T12:01:02;98595.88;;;15.29;100.00
21638;BME280;10980;49.596;6.142;2023-02-21T12:12:36;98579.66;;;15.38;100.00
21638;BME280;10980;49.596;6.142;2023-02-21T12:20:16;98583.34;;;15.37;100.00
21638;BME280;10980;49.596;6.142;2023-02-21T12:28:17;98562.22;;;15.18;100.00
21638;BME280;10980;49.596;6.142;2023-02-21T12:47:30;98538.78;;;15.12;100.00
21638;BME280;10980;49.596;6.142;2023-02-21T12:51:03;98547.16;;;15.25;100.00
21638;BME280;10980;49.596;6.142;2023-02-21T12:54:41;98537.44;;;15.32;100.00
21638;BME280;10980;49.596;6.142;2023-02-21T13:02:47;98527.72;;;15.31;99.86
21638;BME280;10980;49.596;6.142;2023-02-21T13:06:37;98522.38;;;15.23;99.65
21638;BME280;10980;49.596;6.142;2023-02-21T13:10:21;98514.34;;;15.31;99.75
21638;BME280;10980;49.596;6.142;2023-02-21T13:13:45;98513.00;;;15.43;100.00
21638;BME280;10980;49.596;6.142;2023-02-21T13:17:12;98503.63;;;15.47;100.00
21638;BME280;10980;49.596;6.142;2023-02-21T13:20:57;98496.44;;;15.40;100.00
21638;BME280;10980;49.596;6.142;2023-02-21T13:28:25;98491.41;;;15.61;100.00
21638;BME280;10980;49.596;6.142;2023-02-21T13:32:06;98489.72;;;15.60;100.00
21638;BME280;10980;49.596;6.142;2023-02-21T13:35:36;98492.41;;;15.60;100.00
21638;BME280;10980;49.596;6.142;2023-02-21T13:42:35;98486.88;;;15.37;100.00
21638;BME280;10980;49.596;6.142;2023-02-21T13:49:57;98474.13;;;15.56;100.00
21638;BME280;10980;49.596;6.142;2023-02-21T13:53:31;98474.47;;;15.52;100.00
21638;BME280;10980;49.596;6.142;2023-02-21T13:56:54;98462.75;;;15.45;100.00
21638;BME280;10980;49.596;6.142;2023-02-21T14:03:51;98461.59;;;15.64;100.00
21638;BME280;10980;49.596;6.142;2023-02-21T14:07:44;98452.16;;;15.76;100.00
21638;BME280;10980;49.596;6.142;2023-02-21T14:14:43;98440.28;;;15.71;100.00
21638;BME280;10980;49.596;6.142;2023-02-21T14:18:24;98428.03;;;15.76;100.00
21638;BME280;10980;49.596;6.142;2023-02-21T14:22:24;98428.22;;;15.75;98.51
21638;BME280;10980;49.596;6.142;2023-02-21T14:26:00;98427.72;;;15.79;97.90
21638;BME280;10980;49.596;6.142;2023-02-21T14:33:24;98426.88;;;15.79;96.50
21638;BME280;10980;49.596;6.142;2023-02-21T14:37:01;98422.66;;;15.76;94.40
21638;BME280;10980;49.596;6.142;2023-02-21T14:56:39;98401.47;;;15.50;87.88
21638;BME280;10980;49.596;6.142;2023-02-21T15:04:34;98403.84;;;15.21;92.66
21638;BME280;10980;49.596;6.142;2023-02-21T15:08:23;98397.00;;;14.86;93.45
21638;BME280;10980;49.596;6.142;2023-02-21T15:11:47;98401.66;;;14.68;100.00
21638;BME280;10980;49.596;6.142;2023-02-21T15:15:39;98410.56;;;15.09;98.93
21638;BME280;10980;49.596;6.142;2023-02-21T15:19:02;98401.78;;;13.91;100.00
21638;BME280;10980;49.596;6.142;2023-02-21T15:22:26;98404.69;;;14.06;100.00
21638;BME280;10980;49.596;6.142;2023-02-21T15:26:00;98401.69;;;14.92;100.00
21638;BME280;10980;49.596;6.142;2023-02-21T15:29:30;98396.16;;;15.18;95.99
21638;BME280;10980;49.596;6.142;2023-02-21T15:33:15;98399.31;;;15.30;99.10
21638;BME280;10980;49.596;6.142;2023-02-21T15:36:40;98400.19;;;15.06;100.00
21638;BME280;10980;49.596;6.142;2023-02-21T15:40:15;98395.66;;;14.98;100.00
21638;BME280;10980;49.596;6.142;2023-02-21T15:43:48;98393.84;;;14.90;100.00
21638;BME280;10980;49.596;6.142;2023-02-21T15:47:18;98394.47;;;14.52;100.00
21638;BME280;10980;49.596;6.142;2023-02-21T15:50:45;98385.19;;;13.71;100.00
21638;BME280;10980;49.596;6.142;2023-02-21T15:57:39;98384.41;;;13.53;100.00
21638;BME280;10980;49.596;6.142;2023-02-21T16:01:10;98384.88;;;13.49;100.00
21638;BME280;10980;49.596;6.142;2023-02-21T16:04:41;98383.59;;;14.61;100.00
21638;BME280;10980;49.596;6.142;2023-02-21T16:08:03;98383.75;;;14.52;100.00
21638;BME280;10980;49.596;6.142;2023-02-21T16:15:07;98379.03;;;14.38;100.00
21638;BME280;10980;49.596;6.142;2023-02-21T16:18:40;98380.34;;;14.33;100.00
21638;BME280;10980;49.596;6.142;2023-02-21T16:22:27;98386.88;;;14.31;100.00
21638;BME280;10980;49.596;6.142;2023-02-21T16:29:44;98386.63;;;14.08;100.00
21638;BME280;10980;49.596;6.142;2023-02-21T16:33:12;98387.28;;;14.02;100.00
21638;BME280;10980;49.596;6.142;2023-02-21T16:36:37;98384.78;;;13.58;100.00
21638;BME280;10980;49.596;6.142;2023-02-21T16:40:14;98382.63;;;12.92;100.00
21638;BME280;10980;49.596;6.142;2023-02-21T16:43:49;98392.31;;;11.77;100.00
21638;BME280;10980;49.596;6.142;2023-02-21T16:47:16;98380.75;;;12.31;100.00
21638;BME280;10980;49.596;6.142;2023-02-21T16:50:39;98380.38;;;12.62;100.00
21638;BME280;10980;49.596;6.142;2023-02-21T16:54:12;98388.25;;;12.45;100.00
21638;BME280;10980;49.596;6.142;2023-02-21T16:57:35;98387.09;;;12.30;100.00
21638;BME280;10980;49.596;6.142;2023-02-21T17:01:12;98388.72;;;11.96;100.00
21638;BME280;10980;49.596;6.142;2023-02-21T17:04:36;98379.56;;;11.80;100.00
21638;BME280;10980;49.596;6.142;2023-02-21T17:08:00;98374.56;;;11.58;100.00
21638;BME280;10980;49.596;6.142;2023-02-21T17:11:25;98369.84;;;11.52;100.00
21638;BME280;10980;49.596;6.142;2023-02-21T17:14:48;98373.09;;;11.46;100.00
21638;BME280;10980;49.596;6.142;2023-02-21T17:18:11;98379.44;;;11.25;100.00
21638;BME280;10980;49.596;6.142;2023-02-21T17:21:39;98382.88;;;10.98;100.00
21638;BME280;10980;49.596;6.142;2023-02-21T17:25:05;98385.16;;;10.74;100.00
21638;BME280;10980;49.596;6.142;2023-02-21T17:28:29;98392.03;;;10.57;100.00
21638;BME280;10980;49.596;6.142;2023-02-21T17:31:58;98398.75;;;10.42;100.00
21638;BME280;10980;49.596;6.142;2023-02-21T17:35:23;98396.88;;;10.13;100.00
21638;BME280;10980;49.596;6.142;2023-02-21T17:38:45;98400.34;;;8.82;100.00
21638;BME280;10980;49.596;6.142;2023-02-21T17:42:07;98391.94;;;9.59;100.00
21638;BME280;10980;49.596;6.142;2023-02-21T17:45:29;98395.63;;;8.65;100.00
21638;BME280;10980;49.596;6.142;2023-02-21T17:48:51;98395.81;;;7.98;100.00
21638;BME280;10980;49.596;6.142;2023-02-21T17:52:14;98401.34;;;8.49;100.00
21638;BME280;10980;49.596;6.142;2023-02-21T17:55:38;98395.53;;;9.18;100.00
21638;BME280;10980;49.596;6.142;2023-02-21T17:59:00;98395.94;;;9.13;100.00
21638;BME280;10980;49.596;6.142;2023-02-21T18:02:35;98402.13;;;9.03;100.00
21638;BME280;10980;49.596;6.142;2023-02-21T18:05:58;98402.41;;;9.00;100.00
21638;BME280;10980;49.596;6.142;2023-02-21T18:09:21;98404.81;;;8.82;100.00
21638;BME280;10980;49.596;6.142;2023-02-21T18:12:45;98399.94;;;8.66;100.00
21638;BME280;10980;49.596;6.142;2023-02-21T18:16:13;98397.13;;;8.47;100.00
21638;BME280;10980;49.596;6.142;2023-02-21T18:19:36;98401.00;;;8.43;100.00
21638;BME280;10980;49.596;6.142;2023-02-21T18:23:01;98401.00;;;8.43;100.00
21638;BME280;10980;49.596;6.142;2023-02-21T18:26:26;98399.84;;;8.24;100.00
21638;BME280;10980;49.596;6.142;2023-02-21T18:29:55;98389.53;;;8.10;100.00
21638;BME280;10980;49.596;6.142;2023-02-21T18:33:18;98394.94;;;8.08;100.00
21638;BME280;10980;49.596;6.142;2023-02-21T18:36:48;98399.44;;;7.97;100.00
21638;BME280;10980;49.596;6.142;2023-02-21T18:40:13;98393.69;;;7.81;100.00
21638;BME280;10980;49.596;6.142;2023-02-21T18:43:37;98386.50;;;7.60;100.00
21638;BME280;10980;49.596;6.142;2023-02-21T18:47:01;98399.56;;;6.01;100.00
21638;BME280;10980;49.596;6.142;2023-02-21T18:50:32;98389.78;;;5.90;100.00
21638;BME280;10980;49.596;6.142;2023-02-21T18:54:02;98382.38;;;7.11;100.00
21638;BME280;10980;49.596;6.142;2023-02-21T18:57:30;98386.50;;;7.15;100.00
21638;BME280;10980;49.596;6.142;2023-02-21T19:00:58;98385.47;;;6.83;100.00
21638;BME280;10980;49.596;6.142;2023-02-21T19:04:22;98375.84;;;5.88;100.00
21638;BME280;10980;49.596;6.142;2023-02-21T19:07:44;98385.59;;;5.75;100.00
21638;BME280;10980;49.596;6.142;2023-02-21T19:11:08;98381.53;;;6.53;100.00
21638;BME280;10980;49.596;6.142;2023-02-21T19:14:34;98389.69;;;6.85;100.00
21638;BME280;10980;49.596;6.142;2023-02-21T19:17:57;98385.25;;;6.86;100.00
21638;BME280;10980;49.596;6.142;2023-02-21T19:21:21;98380.16;;;6.61;100.00
21638;BME280;10980;49.596;6.142;2023-02-21T19:24:43;98387.72;;;6.65;100.00
21638;BME280;10980;49.596;6.142;2023-02-21T19:28:08;98374.69;;;6.86;100.00
21638;BME280;10980;49.596;6.142;2023-02-21T19:31:35;98386.22;;;6.85;100.00
21638;BME280;10980;49.596;6.142;2023-02-21T19:34:57;98380.53;;;6.78;100.00
21638;BME280;10980;49.596;6.142;2023-02-21T19:38:20;98377.16;;;6.65;100.00
21638;BME280;10980;49.596;6.142;2023-02-21T19:41:53;98384.69;;;6.58;100.00
21638;BME280;10980;49.596;6.142;2023-02-21T19:45:21;98387.78;;;6.41;100.00
21638;BME280;10980;49.596;6.142;2023-02-21T19:48:45;98385.03;;;6.19;100.00
21638;BME280;10980;49.596;6.142;2023-02-21T19:52:09;98389.69;;;6.15;100.00
21638;BME280;10980;49.596;6.142;2023-02-21T19:55:31;98376.78;;;6.00;100.00
21638;BME280;10980;49.596;6.142;2023-02-21T19:58:54;98383.28;;;6.07;100.00
21638;BME280;10980;49.596;6.142;2023-02-21T20:02:17;98381.94;;;6.01;100.00
21638;BME280;10980;49.596;6.142;2023-02-21T20:05:42;98377.97;;;5.95;100.00
21638;BME280;10980;49.596;6.142;2023-02-21T20:09:11;98380.69;;;5.94;100.00
21638;BME280;10980;49.596;6.142;2023-02-21T20:12:33;98368.47;;;5.80;100.00
21638;BME280;10980;49.596;6.142;2023-02-21T20:15:56;98372.50;;;5.73;100.00
21638;BME280;10980;49.596;6.142;2023-02-21T20:19:21;98373.81;;;5.67;100.00
21638;BME280;10980;49.596;6.142;2023-02-21T20:22:43;98365.88;;;5.67;100.00
21638;BME280;10980;49.596;6.142;2023-02-21T20:26:12;98370.31;;;5.67;100.00
21638;BME280;10980;49.596;6.142;2023-02-21T20:29:35;98370.75;;;5.61;100.00
21638;BME280;10980;49.596;6.142;2023-02-21T20:32:57;98364.22;;;5.54;100.00
21638;BME280;10980;49.596;6.142;2023-02-21T20:36:35;98366.91;;;5.41;100.00
21638;BME280;10980;49.596;6.142;2023-02-21T20:39:58;98365.44;;;5.37;100.00
21638;BME280;10980;49.596;6.142;2023-02-21T20:43:24;98358.06;;;5.29;100.00
21638;BME280;10980;49.596;6.142;2023-02-21T20:46:47;98366.59;;;5.20;100.00